sensor_id;sensor_type;location;lat;lon;timestamp;temperature;humidity
13433;DHT22;6789;47.678;9.158;2023-02-28T00:03:05;0.10;99.90
13433;DHT22;6789;47.678;9.158;2023-02-28T00:07:57;0.10;99.90
13433;DHT22;6789;47.678;9.158;2023-02-28T00:13:04;0.00;99.90
13433;DHT22;6789;47.678;9.158;2023-02-28T00:18:22;0.00;99.90
13433;DHT22;6789;47.678;9.158;2023-02-28T00:23:37;0.00;99.90
13433;DHT22;6789;47.678;9.158;2023-02-28T00:28:44;0.00;99.90
13433;DHT22;6789;47.678;9.158;2023-02-28T00:33:51;0.00;99.90
13433;DHT22;6789;47.678;9.158;2023-02-28T00:38:58;0.00;99.90
13433;DHT22;6789;47.678;9.158;2023-02-28T00:44:04;0.00;99.90
13433;DHT22;6789;47.678;9.158;2023-02-28T00:49:11;0.00;99.90
13433;DHT22;6789;47.678;9.158;2023-02-28T00:54:21;-0.10;99.90
13433;DHT22;6789;47.678;9.158;2023-02-28T00:59:38;0.00;99.90
13433;DHT22;6789;47.678;9.158;2023-02-28T01:04:44;0.00;99.90
13433;DHT22;6789;47.678;9.158;2023-02-28T01:09:49;0.00;99.90
13433;DHT22;6789;47.678;9.158;2023-02-28T01:14:55;0.00;99.90
13433;DHT22;6789;47.678;9.158;2023-02-28T01:19:47;0.00;99.90
13433;DHT22;6789;47.678;9.158;2023-02-28T01:24:56;0.00;99.90
13433;DHT22;6789;47.678;9.158;2023-02-28T01:30:03;0.00;99.90
13433;DHT22;6789;47.678;9.158;2023-02-28T01:35:14;0.00;99.90
13433;DHT22;6789;47.678;9.158;2023-02-28T01:40:20;0.00;99.90
13433;DHT22;6789;47.678;9.158;2023-02-28T01:45:29;0.00;99.90
13433;DHT22;6789;47.678;9.158;2023-02-28T01:51:00;0.00;99.90
13433;DHT22;6789;47.678;9.158;2023-02-28T01:56:24;0.10;99.90
13433;DHT22;6789;47.678;9.158;2023-02-28T02:01:38;0.00;99.90
13433;DHT22;6789;47.678;9.158;2023-02-28T02:06:46;0.00;99.90
13433;DHT22;6789;47.678;9.158;2023-02-28T02:11:56;0.00;99.90
13433;DHT22;6789;47.678;9.158;2023-02-28T02:28:15;-0.10;99.90
13433;DHT22;6789;47.678;9.158;2023-02-28T02:34:00;-0.10;99.90
13433;DHT22;6789;47.678;9.158;2023-02-28T02:49:15;0.00;99.90
13433;DHT22;6789;47.678;9.158;2023-02-28T02:54:19;-0.10;99.90
13433;DHT22;6789;47.678;9.158;2023-02-28T02:59:17;0.00;99.90
13433;DHT22;6789;47.678;9.158;2023-02-28T03:04:18;0.00;99.90
13433;DHT22;6789;47.678;9.158;2023-02-28T03:09:12;-0.10;99.90
13433;DHT22;6789;47.678;9.158;2023-02-28T03:14:17;-0.10;99.90
13433;DHT22;6789;47.678;9.158;2023-02-28T03:19:48;-0.10;99.90
13433;DHT22;6789;47.678;9.158;2023-02-28T03:35:18;-0.10;99.90
13433;DHT22;6789;47.678;9.158;2023-02-28T03:40:17;-0.10;99.90
13433;DHT22;6789;47.678;9.158;2023-02-28T03:45:19;-0.10;99.90
13433;DHT22;6789;47.678;9.158;2023-02-28T03:50:33;-0.10;99.90
13433;DHT22;6789;47.678;9.158;2023-02-28T03:55:51;0.00;99.90
13433;DHT22;6789;47.678;9.158;2023-02-28T04:00:53;0.00;99.90
13433;DHT22;6789;47.678;9.158;2023-02-28T04:05:53;-0.10;99.90
13433;DHT22;6789;47.678;9.158;2023-02-28T04:10:50;-0.10;99.90
13433;DHT22;6789;47.678;9.158;2023-02-28T04:15:46;0.00;99.90
13433;DHT22;6789;47.678;9.158;2023-02-28T04:20:38;-0.10;99.90
13433;DHT22;6789;47.678;9.158;2023-02-28T04:25:30;-0.10;99.90
13433;DHT22;6789;47.678;9.158;2023-02-28T04:30:21;-0.10;99.90
13433;DHT22;6789;47.678;9.158;2023-02-28T04:35:13;-0.10;99.90
13433;DHT22;6789;47.678;9.158;2023-02-28T04:40:05;-0.10;99.90
13433;DHT22;6789;47.678;9.158;2023-02-28T04:44:58;-0.10;99.90
13433;DHT22;6789;47.678;9.158;2023-02-28T04:49:50;-0.10;99.90
13433;DHT22;6789;47.678;9.158;2023-02-28T04:54:41;-0.10;99.90
13433;DHT22;6789;47.678;9.158;2023-02-28T04:59:33;-0.10;99.90
13433;DHT22;6789;47.678;9.158;2023-02-28T05:04:25;-0.10;99.90
13433;DHT22;6789;47.678;9.158;2023-02-28T05:09:32;-0.10;99.90
13433;DHT22;6789;47.678;9.158;2023-02-28T05:14:41;-0.10;99.90
13433;DHT22;6789;47.678;9.158;2023-02-28T05:19:47;-0.10;99.90
13433;DHT22;6789;47.678;9.158;2023-02-28T05:24:46;-0.20;99.90
13433;DHT22;6789;47.678;9.158;2023-02-28T05:29:51;-0.20;99.90
13433;DHT22;6789;47.678;9.158;2023-02-28T05:34:57;-0.20;99.90
13433;DHT22;6789;47.678;9.158;2023-02-28T05:40:05;-0.20;99.90
13433;DHT22;6789;47.678;9.158;2023-02-28T05:45:13;-0.30;99.90
13433;DHT22;6789;47.678;9.158;2023-02-28T05:50:08;-0.20;99.90
13433;DHT22;6789;47.678;9.158;2023-02-28T05:55:15;-0.20;99.90
13433;DHT22;6789;47.678;9.158;2023-02-28T06:00:22;-0.20;99.90
13433;DHT22;6789;47.678;9.158;2023-02-28T06:05:17;-0.20;99.90
13433;DHT22;6789;47.678;9.158;2023-02-28T06:10:18;-0.10;99.90
13433;DHT22;6789;47.678;9.158;2023-02-28T06:15:25;-0.20;99.90
13433;DHT22;6789;47.678;9.158;2023-02-28T06:20:41;-0.30;99.90
13433;DHT22;6789;47.678;9.158;2023-02-28T06:26:19;-0.40;99.90
13433;DHT22;6789;47.678;9.158;2023-02-28T06:31:31;-0.20;99.90
13433;DHT22;6789;47.678;9.158;2023-02-28T06:36:37;-0.20;99.90
13433;DHT22;6789;47.678;9.158;2023-02-28T06:41:39;-0.10;99.90
13433;DHT22;6789;47.678;9.158;2023-02-28T06:46:47;-0.20;99.90
13433;DHT22;6789;47.678;9.158;2023-02-28T06:51:44;-0.20;99.90
13433;DHT22;6789;47.678;9.158;2023-02-28T06:56:51;-0.10;99.90
13433;DHT22;6789;47.678;9.158;2023-02-28T07:01:59;-0.10;99.90
13433;DHT22;6789;47.678;9.158;2023-02-28T07:07:16;0.00;99.90
13433;DHT22;6789;47.678;9.158;2023-02-28T07:12:24;0.00;99.90
13433;DHT22;6789;47.678;9.158;2023-02-28T07:17:30;-0.10;99.90
13433;DHT22;6789;47.678;9.158;2023-02-28T07:22:35;0.00;99.90
13433;DHT22;6789;47.678;9.158;2023-02-28T07:27:41;-0.10;99.90
13433;DHT22;6789;47.678;9.158;2023-02-28T07:32:47;0.00;99.90
13433;DHT22;6789;47.678;9.158;2023-02-28T07:37:54;-0.10;99.90
13433;DHT22;6789;47.678;9.158;2023-02-28T07:43:01;-0.10;99.90
13433;DHT22;6789;47.678;9.158;2023-02-28T07:48:08;0.00;99.90
13433;DHT22;6789;47.678;9.158;2023-02-28T07:53:15;-0.10;99.90
13433;DHT22;6789;47.678;9.158;2023-02-28T07:58:21;0.10;99.90
13433;DHT22;6789;47.678;9.158;2023-02-28T08:03:29;0.10;99.90
13433;DHT22;6789;47.678;9.158;2023-02-28T08:08:35;0.10;99.90
13433;DHT22;6789;47.678;9.158;2023-02-28T08:13:41;0.00;99.90
13433;DHT22;6789;47.678;9.158;2023-02-28T08:18:53;0.00;99.90
13433;DHT22;6789;47.678;9.158;2023-02-28T08:24:03;0.00;99.90
13433;DHT22;6789;47.678;9.158;2023-02-28T08:29:14;0.00;99.90
13433;DHT22;6789;47.678;9.158;2023-02-28T08:34:48;0.00;99.90
13433;DHT22;6789;47.678;9.158;2023-02-28T08:40:16;0.20;99.90
13433;DHT22;6789;47.678;9.158;2023-02-28T08:45:26;0.30;99.90
13433;DHT22;6789;47.678;9.158;2023-02-28T08:50:26;0.10;99.90
13433;DHT22;6789;47.678;9.158;2023-02-28T08:55:18;0.20;99.90
13433;DHT22;6789;47.678;9.158;2023-02-28T09:00:24;0.40;99.90
13433;DHT22;6789;47.678;9.158;2023-02-28T09:05:16;0.10;99.90
13433;DHT22;6789;47.678;9.158;2023-02-28T09:10:10;0.00;99.90
13433;DHT22;6789;47.678;9.158;2023-02-28T09:15:17;-0.10;99.90
13433;DHT22;6789;47.678;9.158;2023-02-28T09:20:23;0.00;99.90
13433;DHT22;6789;47.678;9.158;2023-02-28T09:25:19;-0.10;99.90
13433;DHT22;6789;47.678;9.158;2023-02-28T09:30:18;0.00;99.90
13433;DHT22;6789;47.678;9.158;2023-02-28T09:35:24;0.20;99.90
13433;DHT22;6789;47.678;9.158;2023-02-28T09:40:21;0.30;99.90
13433;DHT22;6789;47.678;9.158;2023-02-28T09:45:35;0.30;99.90
13433;DHT22;6789;47.678;9.158;2023-02-28T09:50:49;0.20;99.90
13433;DHT22;6789;47.678;9.158;2023-02-28T09:55:50;0.40;99.90
13433;DHT22;6789;47.678;9.158;2023-02-28T10:06:49;0.80;99.90
13433;DHT22;6789;47.678;9.158;2023-02-28T10:11:44;0.70;99.90
13433;DHT22;6789;47.678;9.158;2023-02-28T10:16:56;0.70;99.90
13433;DHT22;6789;47.678;9.158;2023-02-28T10:22:25;0.80;99.90
13433;DHT22;6789;47.678;9.158;2023-02-28T10:27:28;0.60;99.90
13433;DHT22;6789;47.678;9.158;2023-02-28T10:32:46;0.50;99.90
13433;DHT22;6789;47.678;9.158;2023-02-28T10:37:55;0.80;99.90
13433;DHT22;6789;47.678;9.158;2023-02-28T10:43:05;0.60;99.90
13433;DHT22;6789;47.678;9.158;2023-02-28T10:53:33;1.00;99.90
13433;DHT22;6789;47.678;9.158;2023-02-28T10:59:01;0.90;99.90
13433;DHT22;6789;47.678;9.158;2023-02-28T11:04:02;0.80;99.90
13433;DHT22;6789;47.678;9.158;2023-02-28T11:09:25;0.90;99.90
13433;DHT22;6789;47.678;9.158;2023-02-28T11:14:28;0.90;99.90
13433;DHT22;6789;47.678;9.158;2023-02-28T11:19:48;1.20;99.90
13433;DHT22;6789;47.678;9.158;2023-02-28T11:25:03;1.50;99.90
13433;DHT22;6789;47.678;9.158;2023-02-28T11:35:38;1.20;99.90
13433;DHT22;6789;47.678;9.158;2023-02-28T11:46:30;1.00;99.90
13433;DHT22;6789;47.678;9.158;2023-02-28T11:57:49;1.20;99.90
13433;DHT22;6789;47.678;9.158;2023-02-28T12:03:26;1.30;99.90
13433;DHT22;6789;47.678;9.158;2023-02-28T12:08:43;1.10;99.90
13433;DHT22;6789;47.678;9.158;2023-02-28T12:30:22;1.50;99.90
13433;DHT22;6789;47.678;9.158;2023-02-28T12:35:37;1.40;99.90
13433;DHT22;6789;47.678;9.158;2023-02-28T12:41:00;1.30;99.90
13433;DHT22;6789;47.678;9.158;2023-02-28T12:46:41;1.50;99.90
13433;DHT22;6789;47.678;9.158;2023-02-28T12:51:49;1.70;99.90
13433;DHT22;6789;47.678;9.158;2023-02-28T12:57:19;1.90;99.90
13433;DHT22;6789;47.678;9.158;2023-02-28T13:13:24;1.90;99.90
13433;DHT22;6789;47.678;9.158;2023-02-28T13:18:40;1.70;99.90
13433;DHT22;6789;47.678;9.158;2023-02-28T13:29:01;1.80;99.90
13433;DHT22;6789;47.678;9.158;2023-02-28T13:34:22;1.90;99.90
13433;DHT22;6789;47.678;9.158;2023-02-28T14:01:46;2.00;99.90
13433;DHT22;6789;47.678;9.158;2023-02-28T14:07:27;2.20;99.90
13433;DHT22;6789;47.678;9.158;2023-02-28T14:13:12;2.30;99.90
13433;DHT22;6789;47.678;9.158;2023-02-28T14:18:38;2.00;99.90
13433;DHT22;6789;47.678;9.158;2023-02-28T14:29:51;2.10;99.90
13433;DHT22;6789;47.678;9.158;2023-02-28T14:35:54;1.80;99.90
13433;DHT22;6789;47.678;9.158;2023-02-28T14:46:53;2.00;99.90
13433;DHT22;6789;47.678;9.158;2023-02-28T14:57:24;1.90;99.90
13433;DHT22;6789;47.678;9.158;2023-02-28T15:02:36;1.80;99.90
13433;DHT22;6789;47.678;9.158;2023-02-28T15:07:37;1.70;99.90
13433;DHT22;6789;47.678;9.158;2023-02-28T15:12:50;1.60;99.90
13433;DHT22;6789;47.678;9.158;2023-02-28T15:18:04;1.70;99.90
13433;DHT22;6789;47.678;9.158;2023-02-28T15:23:48;1.70;99.90
13433;DHT22;6789;47.678;9.158;2023-02-28T15:29:41;1.60;99.90
13433;DHT22;6789;47.678;9.158;2023-02-28T15:34:51;1.70;99.90
13433;DHT22;6789;47.678;9.158;2023-02-28T15:45:41;1.90;99.90
13433;DHT22;6789;47.678;9.158;2023-02-28T15:56:33;1.90;99.90
13433;DHT22;6789;47.678;9.158;2023-02-28T16:02:18;2.00;99.90
13433;DHT22;6789;47.678;9.158;2023-02-28T16:07:49;2.00;99.90
13433;DHT22;6789;47.678;9.158;2023-02-28T16:12:57;1.90;99.90
13433;DHT22;6789;47.678;9.158;2023-02-28T16:18:03;1.90;99.90
13433;DHT22;6789;47.678;9.158;2023-02-28T16:23:10;1.80;99.90
13433;DHT22;6789;47.678;9.158;2023-02-28T16:28:24;1.80;99.90
13433;DHT22;6789;47.678;9.158;2023-02-28T16:33:36;1.80;99.90
13433;DHT22;6789;47.678;9.158;2023-02-28T16:38:30;1.80;99.90
13433;DHT22;6789;47.678;9.158;2023-02-28T16:43:38;1.70;99.90
13433;DHT22;6789;47.678;9.158;2023-02-28T16:48:44;1.70;99.90
13433;DHT22;6789;47.678;9.158;2023-02-28T16:53:46;1.70;99.90
13433;DHT22;6789;47.678;9.158;2023-02-28T16:58:59;1.70;99.90
13433;DHT22;6789;47.678;9.158;2023-02-28T17:04:28;1.60;99.90
13433;DHT22;6789;47.678;9.158;2023-02-28T17:09:34;1.50;99.90
13433;DHT22;6789;47.678;9.158;2023-02-28T17:14:34;1.40;99.90
13433;DHT22;6789;47.678;9.158;2023-02-28T17:19:40;1.40;99.90
13433;DHT22;6789;47.678;9.158;2023-02-28T17:24:48;1.30;99.90
13433;DHT22;6789;47.678;9.158;2023-02-28T17:29:54;1.20;99.90
13433;DHT22;6789;47.678;9.158;2023-02-28T17:35:00;1.20;99.90
13433;DHT22;6789;47.678;9.158;2023-02-28T17:40:11;1.20;99.90
13433;DHT22;6789;47.678;9.158;2023-02-28T17:45:22;1.10;99.90
13433;DHT22;6789;47.678;9.158;2023-02-28T17:50:32;1.00;99.90
13433;DHT22;6789;47.678;9.158;2023-02-28T17:55:38;1.10;99.90
13433;DHT22;6789;47.678;9.158;2023-02-28T18:00:45;1.10;99.90
13433;DHT22;6789;47.678;9.158;2023-02-28T18:05:52;1.00;99.90
13433;DHT22;6789;47.678;9.158;2023-02-28T18:10:52;1.00;99.90
13433;DHT22;6789;47.678;9.158;2023-02-28T18:15:58;1.00;99.90
13433;DHT22;6789;47.678;9.158;2023-02-28T18:21:05;1.00;99.90
13433;DHT22;6789;47.678;9.158;2023-02-28T18:26:16;1.00;99.90
13433;DHT22;6789;47.678;9.158;2023-02-28T18:31:24;0.90;99.90
13433;DHT22;6789;47.678;9.158;2023-02-28T18:36:22;1.00;99.90
13433;DHT22;6789;47.678;9.158;2023-02-28T18:41:28;0.80;99.90
13433;DHT22;6789;47.678;9.158;2023-02-28T18:46:34;0.90;99.90
13433;DHT22;6789;47.678;9.158;2023-02-28T18:51:40;0.90;99.90
13433;DHT22;6789;47.678;9.158;2023-02-28T18:56:49;0.80;99.90
13433;DHT22;6789;47.678;9.158;2023-02-28T19:01:55;0.80;99.90
13433;DHT22;6789;47.678;9.158;2023-02-28T19:06:52;0.80;99.90
13433;DHT22;6789;47.678;9.158;2023-02-28T19:11:58;0.80;99.90
13433;DHT22;6789;47.678;9.158;2023-02-28T19:17:04;0.80;99.90
13433;DHT22;6789;47.678;9.158;2023-02-28T19:22:10;0.80;99.90
13433;DHT22;6789;47.678;9.158;2023-02-28T19:27:16;0.80;99.90
13433;DHT22;6789;47.678;9.158;2023-02-28T19:32:25;0.70;99.90
13433;DHT22;6789;47.678;9.158;2023-02-28T19:37:31;0.70;99.90
13433;DHT22;6789;47.678;9.158;2023-02-28T19:42:37;0.70;99.90
13433;DHT22;6789;47.678;9.158;2023-02-28T19:47:42;0.80;99.90
13433;DHT22;6789;47.678;9.158;2023-02-28T19:52:49;0.70;99.90
13433;DHT22;6789;47.678;9.158;2023-02-28T19:57:54;0.70;99.90
13433;DHT22;6789;47.678;9.158;2023-02-28T20:03:00;0.70;99.90
13433;DHT22;6789;47.678;9.158;2023-02-28T20:07:56;0.70;99.90
13433;DHT22;6789;47.678;9.158;2023-02-28T20:13:02;0.70;99.90
13433;DHT22;6789;47.678;9.158;2023-02-28T20:18:07;0.70;99.90
13433;DHT22;6789;47.678;9.158;2023-02-28T20:23:13;0.60;99.90
13433;DHT22;6789;47.678;9.158;2023-02-28T20:28:07;0.60;99.90
13433;DHT22;6789;47.678;9.158;2023-02-28T20:33:17;0.70;99.90
13433;DHT22;6789;47.678;9.158;2023-02-28T20:38:14;0.60;99.90
13433;DHT22;6789;47.678;9.158;2023-02-28T20:43:20;0.70;99.90
13433;DHT22;6789;47.678;9.158;2023-02-28T20:48:14;0.70;99.90
13433;DHT22;6789;47.678;9.158;2023-02-28T20:53:49;0.70;99.90
13433;DHT22;6789;47.678;9.158;2023-02-28T20:58:56;0.80;99.90
13433;DHT22;6789;47.678;9.158;2023-02-28T21:04:04;0.90;99.90
13433;DHT22;6789;47.678;9.158;2023-02-28T21:09:05;1.10;99.90
13433;DHT22;6789;47.678;9.158;2023-02-28T21:14:15;1.10;99.90
13433;DHT22;6789;47.678;9.158;2023-02-28T21:19:22;1.20;99.90
13433;DHT22;6789;47.678;9.158;2023-02-28T21:24:27;1.20;99.90
13433;DHT22;6789;47.678;9.158;2023-02-28T21:29:33;1.30;99.90
13433;DHT22;6789;47.678;9.158;2023-02-28T21:34:39;1.20;99.90
13433;DHT22;6789;47.678;9.158;2023-02-28T21:39:32;1.30;99.90
13433;DHT22;6789;47.678;9.158;2023-02-28T21:44:55;1.20;99.90
13433;DHT22;6789;47.678;9.158;2023-02-28T21:50:03;1.20;99.90
13433;DHT22;6789;47.678;9.158;2023-02-28T21:55:54;1.20;99.90
13433;DHT22;6789;47.678;9.158;2023-02-28T22:01:27;1.20;99.90
13433;DHT22;6789;47.678;9.158;2023-02-28T22:06:31;1.20;99.90
13433;DHT22;6789;47.678;9.158;2023-02-28T22:11:28;1.20;99.90
13433;DHT22;6789;47.678;9.158;2023-02-28T22:16:34;1.20;99.90
13433;DHT22;6789;47.678;9.158;2023-02-28T22:21:42;1.20;99.90
13433;DHT22;6789;47.678;9.158;2023-02-28T22:26:35;1.30;99.90
13433;DHT22;6789;47.678;9.158;2023-02-28T22:31:32;1.20;99.90
13433;DHT22;6789;47.678;9.158;2023-02-28T22:36:26;1.20;99.90
13433;DHT22;6789;47.678;9.158;2023-02-28T22:41:21;1.30;99.90
13433;DHT22;6789;47.678;9.158;2023-02-28T22:46:15;1.30;99.90
13433;DHT22;6789;47.678;9.158;2023-02-28T22:51:21;1.40;99.90
13433;DHT22;6789;47.678;9.158;2023-02-28T22:56:20;1.40;99.90
13433;DHT22;6789;47.678;9.158;2023-02-28T23:01:30;1.40;99.90
13433;DHT22;6789;47.678;9.158;2023-02-28T23:06:32;1.50;99.90
13433;DHT22;6789;47.678;9.158;2023-02-28T23:11:37;1.50;99.90
13433;DHT22;6789;47.678;9.158;2023-02-28T23:16:47;1.50;99.90
13433;DHT22;6789;47.678;9.158;2023-02-28T23:21:53;1.60;99.90
13433;DHT22;6789;47.678;9.158;2023-02-28T23:26:48;1.70;99.90
13433;DHT22;6789;47.678;9.158;2023-02-28T23:31:43;1.60;99.90
13433;DHT22;6789;47.678;9.158;2023-02-28T23:36:43;1.70;99.90
13433;DHT22;6789;47.678;9.158;2023-02-28T23:41:52;1.70;99.90
13433;DHT22;6789;47.678;9.158;2023-02-28T23:46:50;1.80;99.90
13433;DHT22;6789;47.678;9.158;2023-02-28T23:51:51;1.70;99.90
13433;DHT22;6789;47.678;9.158;2023-02-28T23:56:49;1.70;99.90
